sensor_id;sensor_type;location;lat;lon;timestamp;pressure;altitude;pressure_sealevel;temperature;humidity
2841;BME280;53423;49.224;12.074;2023-05-23T00:01:19;97282.88;;;15.81;62.80
2841;BME280;53423;49.224;12.074;2023-05-23T00:03:48;97281.50;;;15.78;63.33
2841;BME280;53423;49.224;12.074;2023-05-23T00:06:18;97279.19;;;16.01;63.05
2841;BME280;53423;49.224;12.074;2023-05-23T00:08:48;97279.53;;;16.18;62.57
2841;BME280;53423;49.224;12.074;2023-05-23T00:11:16;97285.25;;;16.15;63.17
2841;BME280;53423;49.224;12.074;2023-05-23T00:13:45;97278.28;;;16.27;63.61
2841;BME280;53423;49.224;12.074;2023-05-23T00:16:13;97291.31;;;16.22;64.04
2841;BME280;53423;49.224;12.074;2023-05-23T00:18:43;97288.22;;;16.32;63.33
2841;BME280;53423;49.224;12.074;2023-05-23T00:21:11;97289.84;;;16.39;62.91
2841;BME280;53423;49.224;12.074;2023-05-23T00:23:39;97293.34;;;16.27;63.84
2841;BME280;53423;49.224;12.074;2023-05-23T00:26:08;97286.88;;;16.16;63.89
2841;BME280;53423;49.224;12.074;2023-05-23T00:28:37;97282.16;;;16.31;63.82
2841;BME280;53423;49.224;12.074;2023-05-23T00:31:05;97284.16;;;16.36;63.96
2841;BME280;53423;49.224;12.074;2023-05-23T00:33:33;97292.19;;;16.16;63.85
2841;BME280;53423;49.224;12.074;2023-05-23T00:36:03;97289.53;;;16.09;63.89
2841;BME280;53423;49.224;12.074;2023-05-23T00:38:31;97289.13;;;16.12;63.34
2841;BME280;53423;49.224;12.074;2023-05-23T00:41:00;97298.22;;;16.23;62.76
2841;BME280;53423;49.224;12.074;2023-05-23T00:43:28;97301.75;;;16.04;62.56
2841;BME280;53423;49.224;12.074;2023-05-23T00:45:57;97305.00;;;15.99;62.91
2841;BME280;53423;49.224;12.074;2023-05-23T00:48:25;97310.94;;;15.95;63.19
2841;BME280;53423;49.224;12.074;2023-05-23T00:50:54;97302.97;;;16.01;62.98
2841;BME280;53423;49.224;12.074;2023-05-23T00:53:23;97302.75;;;16.09;62.99
2841;BME280;53423;49.224;12.074;2023-05-23T00:55:52;97304.16;;;16.18;62.89
2841;BME280;53423;49.224;12.074;2023-05-23T00:58:20;97309.19;;;16.33;62.66
2841;BME280;53423;49.224;12.074;2023-05-23T01:00:48;97312.41;;;16.42;63.19
2841;BME280;53423;49.224;12.074;2023-05-23T01:03:20;97304.72;;;16.34;63.76
2841;BME280;53423;49.224;12.074;2023-05-23T01:05:49;97311.84;;;16.27;63.79
2841;BME280;53423;49.224;12.074;2023-05-23T01:08:17;97317.81;;;16.09;63.85
2841;BME280;53423;49.224;12.074;2023-05-23T01:10:46;97315.38;;;16.07;63.68
2841;BME280;53423;49.224;12.074;2023-05-23T01:13:21;97325.59;;;15.97;63.46
2841;BME280;53423;49.224;12.074;2023-05-23T01:15:54;97341.03;;;16.00;64.36
2841;BME280;53423;49.224;12.074;2023-05-23T01:18:33;97337.53;;;16.13;64.06
2841;BME280;53423;49.224;12.074;2023-05-23T01:21:06;97342.00;;;16.19;64.19
2841;BME280;53423;49.224;12.074;2023-05-23T01:24:02;97340.19;;;16.00;63.27
2841;BME280;53423;49.224;12.074;2023-05-23T01:26:52;97350.41;;;15.77;63.96
2841;BME280;53423;49.224;12.074;2023-05-23T01:29:31;97354.47;;;15.60;64.42
2841;BME280;53423;49.224;12.074;2023-05-23T01:32:04;97344.25;;;15.18;63.84
2841;BME280;53423;49.224;12.074;2023-05-23T01:34:37;97349.41;;;15.45;63.29
2841;BME280;53423;49.224;12.074;2023-05-23T01:37:08;97342.91;;;15.41;63.89
2841;BME280;53423;49.224;12.074;2023-05-23T01:39:37;97340.44;;;15.27;64.54
2841;BME280;53423;49.224;12.074;2023-05-23T01:42:06;97347.53;;;15.33;64.40
2841;BME280;53423;49.224;12.074;2023-05-23T01:44:37;97334.78;;;15.43;64.38
2841;BME280;53423;49.224;12.074;2023-05-23T01:47:07;97339.84;;;15.64;63.98
2841;BME280;53423;49.224;12.074;2023-05-23T01:49:36;97337.22;;;15.57;64.48
2841;BME280;53423;49.224;12.074;2023-05-23T01:52:05;97337.63;;;15.67;64.56
2841;BME280;53423;49.224;12.074;2023-05-23T01:54:36;97331.13;;;15.57;64.29
2841;BME280;53423;49.224;12.074;2023-05-23T01:57:09;97336.38;;;15.83;64.33
2841;BME280;53423;49.224;12.074;2023-05-23T01:59:41;97338.03;;;15.77;64.05
2841;BME280;53423;49.224;12.074;2023-05-23T02:02:09;97341.03;;;15.81;63.82
2841;BME280;53423;49.224;12.074;2023-05-23T02:04:37;97346.34;;;15.74;63.51
2841;BME280;53423;49.224;12.074;2023-05-23T02:07:06;97342.28;;;15.65;63.69
2841;BME280;53423;49.224;12.074;2023-05-23T02:09:33;97346.97;;;15.44;63.69
2841;BME280;53423;49.224;12.074;2023-05-23T02:12:01;97349.81;;;15.49;63.76
2841;BME280;53423;49.224;12.074;2023-05-23T02:14:29;97341.91;;;15.49;63.88
2841;BME280;53423;49.224;12.074;2023-05-23T02:16:59;97343.28;;;15.38;64.21
2841;BME280;53423;49.224;12.074;2023-05-23T02:19:27;97352.00;;;15.26;64.47
2841;BME280;53423;49.224;12.074;2023-05-23T02:21:55;97350.41;;;15.44;64.26
2841;BME280;53423;49.224;12.074;2023-05-23T02:24:23;97349.19;;;15.47;64.65
2841;BME280;53423;49.224;12.074;2023-05-23T02:26:51;97353.66;;;15.66;64.69
2841;BME280;53423;49.224;12.074;2023-05-23T02:29:19;97359.75;;;15.66;64.78
2841;BME280;53423;49.224;12.074;2023-05-23T02:31:47;97356.09;;;15.48;64.86
2841;BME280;53423;49.224;12.074;2023-05-23T02:34:16;97351.41;;;15.37;65.76
2841;BME280;53423;49.224;12.074;2023-05-23T02:36:44;97352.25;;;15.57;65.28
2841;BME280;53423;49.224;12.074;2023-05-23T02:39:12;97350.44;;;15.64;65.17
2841;BME280;53423;49.224;12.074;2023-05-23T02:41:40;97356.31;;;15.59;65.82
2841;BME280;53423;49.224;12.074;2023-05-23T02:44:08;97353.44;;;15.61;65.97
2841;BME280;53423;49.224;12.074;2023-05-23T02:46:36;97357.53;;;15.70;65.27
2841;BME280;53423;49.224;12.074;2023-05-23T02:49:04;97359.75;;;15.66;65.42
2841;BME280;53423;49.224;12.074;2023-05-23T02:51:33;97357.94;;;15.67;65.43
2841;BME280;53423;49.224;12.074;2023-05-23T02:54:01;97361.78;;;15.51;66.24
2841;BME280;53423;49.224;12.074;2023-05-23T02:56:29;97353.06;;;15.64;66.21
2841;BME280;53423;49.224;12.074;2023-05-23T02:58:57;97358.97;;;15.72;65.69
2841;BME280;53423;49.224;12.074;2023-05-23T03:01:25;97355.50;;;15.78;65.99
2841;BME280;53423;49.224;12.074;2023-05-23T03:03:53;97352.66;;;15.73;66.52
2841;BME280;53423;49.224;12.074;2023-05-23T03:06:21;97344.72;;;15.80;66.29
2841;BME280;53423;49.224;12.074;2023-05-23T03:08:50;97337.16;;;15.90;66.05
2841;BME280;53423;49.224;12.074;2023-05-23T03:11:18;97339.44;;;15.73;66.45
2841;BME280;53423;49.224;12.074;2023-05-23T03:13:48;97339.22;;;15.68;66.67
2841;BME280;53423;49.224;12.074;2023-05-23T03:16:16;97332.53;;;15.72;66.73
2841;BME280;53423;49.224;12.074;2023-05-23T03:18:43;97340.84;;;15.63;66.53
2841;BME280;53423;49.224;12.074;2023-05-23T03:21:11;97336.19;;;15.71;66.61
2841;BME280;53423;49.224;12.074;2023-05-23T03:23:39;97331.28;;;15.81;66.64
2841;BME280;53423;49.224;12.074;2023-05-23T03:26:09;97330.88;;;15.84;66.22
2841;BME280;53423;49.224;12.074;2023-05-23T03:28:37;97334.34;;;15.85;66.93
2841;BME280;53423;49.224;12.074;2023-05-23T03:31:05;97333.09;;;15.81;67.12
2841;BME280;53423;49.224;12.074;2023-05-23T03:33:33;97335.97;;;15.92;66.80
2841;BME280;53423;49.224;12.074;2023-05-23T03:36:03;97335.97;;;15.92;66.96
2841;BME280;53423;49.224;12.074;2023-05-23T03:38:32;97336.94;;;15.98;66.90
2841;BME280;53423;49.224;12.074;2023-05-23T03:41:00;97335.34;;;15.90;66.98
2841;BME280;53423;49.224;12.074;2023-05-23T03:43:29;97346.34;;;15.94;66.95
2841;BME280;53423;49.224;12.074;2023-05-23T03:45:57;97337.38;;;15.88;66.55
2841;BME280;53423;49.224;12.074;2023-05-23T03:48:25;97346.28;;;16.07;65.76
2841;BME280;53423;49.224;12.074;2023-05-23T03:50:53;97345.47;;;16.13;65.41
2841;BME280;53423;49.224;12.074;2023-05-23T03:53:21;97349.59;;;15.96;66.89
2841;BME280;53423;49.224;12.074;2023-05-23T03:55:49;97353.66;;;15.92;67.33
2841;BME280;53423;49.224;12.074;2023-05-23T03:58:19;97347.31;;;15.99;67.67
2841;BME280;53423;49.224;12.074;2023-05-23T04:00:48;97350.34;;;16.03;67.57
2841;BME280;53423;49.224;12.074;2023-05-23T04:03:19;97354.84;;;16.09;67.12
2841;BME280;53423;49.224;12.074;2023-05-23T04:05:47;97351.38;;;16.02;67.80
2841;BME280;53423;49.224;12.074;2023-05-23T04:08:15;97360.31;;;16.14;67.52
2841;BME280;53423;49.224;12.074;2023-05-23T04:10:43;97363.38;;;16.17;66.72
2841;BME280;53423;49.224;12.074;2023-05-23T04:13:11;97369.66;;;16.16;67.14
2841;BME280;53423;49.224;12.074;2023-05-23T04:15:39;97373.31;;;16.22;66.71
2841;BME280;53423;49.224;12.074;2023-05-23T04:18:10;97379.44;;;16.16;66.80
2841;BME280;53423;49.224;12.074;2023-05-23T04:20:37;97375.72;;;16.30;66.38
2841;BME280;53423;49.224;12.074;2023-05-23T04:23:05;97376.16;;;16.21;67.53
2841;BME280;53423;49.224;12.074;2023-05-23T04:25:33;97370.66;;;16.22;67.05
2841;BME280;53423;49.224;12.074;2023-05-23T04:28:01;97380.81;;;16.25;66.27
2841;BME280;53423;49.224;12.074;2023-05-23T04:30:30;97378.38;;;16.30;65.51
2841;BME280;53423;49.224;12.074;2023-05-23T04:32:58;97378.56;;;16.35;65.67
2841;BME280;53423;49.224;12.074;2023-05-23T04:35:28;97372.84;;;16.45;65.46
2841;BME280;53423;49.224;12.074;2023-05-23T04:37:59;97373.06;;;16.56;65.77
2841;BME280;53423;49.224;12.074;2023-05-23T04:40:28;97377.75;;;16.48;66.13
2841;BME280;53423;49.224;12.074;2023-05-23T04:42:56;97385.91;;;16.46;65.74
2841;BME280;53423;49.224;12.074;2023-05-23T04:45:24;97383.56;;;16.69;65.49
2841;BME280;53423;49.224;12.074;2023-05-23T04:47:52;97388.91;;;16.63;65.81
2841;BME280;53423;49.224;12.074;2023-05-23T04:50:21;97382.69;;;16.88;65.45
2841;BME280;53423;49.224;12.074;2023-05-23T04:52:51;97386.56;;;17.23;65.21
2841;BME280;53423;49.224;12.074;2023-05-23T04:55:19;97389.28;;;17.42;64.34
2841;BME280;53423;49.224;12.074;2023-05-23T04:57:47;97381.00;;;17.63;63.53
2841;BME280;53423;49.224;12.074;2023-05-23T05:00:16;97375.97;;;17.79;63.24
2841;BME280;53423;49.224;12.074;2023-05-23T05:02:44;97376.94;;;17.85;63.75
2841;BME280;53423;49.224;12.074;2023-05-23T05:05:12;97373.84;;;18.12;63.08
2841;BME280;53423;49.224;12.074;2023-05-23T05:07:40;97369.47;;;18.18;62.84
2841;BME280;53423;49.224;12.074;2023-05-23T05:10:10;97373.59;;;18.56;61.99
2841;BME280;53423;49.224;12.074;2023-05-23T05:12:42;97376.66;;;18.72;62.06
2841;BME280;53423;49.224;12.074;2023-05-23T05:15:11;97389.41;;;18.99;60.78
2841;BME280;53423;49.224;12.074;2023-05-23T05:17:39;97392.50;;;19.26;60.58
2841;BME280;53423;49.224;12.074;2023-05-23T05:20:08;97380.88;;;19.68;59.10
2841;BME280;53423;49.224;12.074;2023-05-23T05:22:37;97394.66;;;20.11;57.50
2841;BME280;53423;49.224;12.074;2023-05-23T05:25:07;97386.72;;;20.34;57.00
2841;BME280;53423;49.224;12.074;2023-05-23T05:27:38;97391.03;;;20.75;55.65
2841;BME280;53423;49.224;12.074;2023-05-23T05:30:08;97393.31;;;21.06;54.45
2841;BME280;53423;49.224;12.074;2023-05-23T05:32:36;97396.97;;;20.65;56.30
2841;BME280;53423;49.224;12.074;2023-05-23T05:35:05;97394.28;;;20.77;56.48
2841;BME280;53423;49.224;12.074;2023-05-23T05:37:34;97392.00;;;21.09;54.80
2841;BME280;53423;49.224;12.074;2023-05-23T05:40:02;97392.44;;;21.45;53.47
2841;BME280;53423;49.224;12.074;2023-05-23T05:42:32;97398.38;;;21.64;52.56
2841;BME280;53423;49.224;12.074;2023-05-23T05:45:01;97392.53;;;21.50;53.44
2841;BME280;53423;49.224;12.074;2023-05-23T05:47:29;97399.19;;;21.81;52.73
2841;BME280;53423;49.224;12.074;2023-05-23T05:49:57;97393.41;;;22.00;52.80
2841;BME280;53423;49.224;12.074;2023-05-23T05:52:25;97404.88;;;22.17;52.47
2841;BME280;53423;49.224;12.074;2023-05-23T05:54:53;97398.81;;;22.05;52.93
2841;BME280;53423;49.224;12.074;2023-05-23T05:57:23;97395.97;;;22.12;51.73
2841;BME280;53423;49.224;12.074;2023-05-23T05:59:51;97405.41;;;22.36;52.12
2841;BME280;53423;49.224;12.074;2023-05-23T06:02:20;97403.91;;;22.62;51.05
2841;BME280;53423;49.224;12.074;2023-05-23T06:04:48;97407.03;;;22.75;51.29
2841;BME280;53423;49.224;12.074;2023-05-23T06:07:16;97413.84;;;22.83;50.52
2841;BME280;53423;49.224;12.074;2023-05-23T06:09:44;97423.19;;;23.07;50.36
2841;BME280;53423;49.224;12.074;2023-05-23T06:12:12;97413.38;;;23.12;49.49
2841;BME280;53423;49.224;12.074;2023-05-23T06:14:40;97410.00;;;23.22;49.16
2841;BME280;53423;49.224;12.074;2023-05-23T06:17:08;97413.38;;;23.34;49.33
2841;BME280;53423;49.224;12.074;2023-05-23T06:19:37;97415.78;;;23.57;49.38
2841;BME280;53423;49.224;12.074;2023-05-23T06:22:05;97419.78;;;23.86;48.21
2841;BME280;53423;49.224;12.074;2023-05-23T06:24:33;97431.72;;;24.00;47.94
2841;BME280;53423;49.224;12.074;2023-05-23T06:27:01;97422.16;;;24.46;47.11
2841;BME280;53423;49.224;12.074;2023-05-23T06:29:29;97422.63;;;24.43;47.35
2841;BME280;53423;49.224;12.074;2023-05-23T06:31:57;97431.41;;;24.70;45.98
2841;BME280;53423;49.224;12.074;2023-05-23T06:34:25;97417.63;;;24.98;45.44
2841;BME280;53423;49.224;12.074;2023-05-23T06:36:54;97411.66;;;24.86;45.43
2841;BME280;53423;49.224;12.074;2023-05-23T06:39:22;97415.31;;;24.28;46.96
2841;BME280;53423;49.224;12.074;2023-05-23T06:41:50;97415.72;;;24.10;47.42
2841;BME280;53423;49.224;12.074;2023-05-23T06:44:18;97413.09;;;24.15;47.73
2841;BME280;53423;49.224;12.074;2023-05-23T06:46:46;97408.72;;;24.09;48.17
2841;BME280;53423;49.224;12.074;2023-05-23T06:49:14;97418.94;;;24.49;47.87
2841;BME280;53423;49.224;12.074;2023-05-23T06:51:42;97421.03;;;24.05;47.57
2841;BME280;53423;49.224;12.074;2023-05-23T06:54:12;97417.28;;;24.06;47.87
2841;BME280;53423;49.224;12.074;2023-05-23T06:56:40;97410.81;;;24.34;47.26
2841;BME280;53423;49.224;12.074;2023-05-23T06:59:08;97420.88;;;24.17;47.50
2841;BME280;53423;49.224;12.074;2023-05-23T07:01:36;97430.31;;;23.98;47.29
2841;BME280;53423;49.224;12.074;2023-05-23T07:04:04;97426.25;;;23.90;47.44
2841;BME280;53423;49.224;12.074;2023-05-23T07:06:33;97424.69;;;23.68;48.62
2841;BME280;53423;49.224;12.074;2023-05-23T07:09:02;97433.47;;;23.90;47.85
2841;BME280;53423;49.224;12.074;2023-05-23T07:11:31;97428.56;;;24.08;47.32
2841;BME280;53423;49.224;12.074;2023-05-23T07:14:00;97437.16;;;23.84;48.09
2841;BME280;53423;49.224;12.074;2023-05-23T07:16:28;97434.84;;;23.92;48.22
2841;BME280;53423;49.224;12.074;2023-05-23T07:18:56;97439.78;;;24.05;48.48
2841;BME280;53423;49.224;12.074;2023-05-23T07:21:24;97437.75;;;24.17;48.40
2841;BME280;53423;49.224;12.074;2023-05-23T07:23:52;97438.34;;;24.29;46.39
2841;BME280;53423;49.224;12.074;2023-05-23T07:26:20;97438.38;;;24.34;44.81
2841;BME280;53423;49.224;12.074;2023-05-23T07:28:49;97443.94;;;24.23;45.12
2841;BME280;53423;49.224;12.074;2023-05-23T07:31:18;97443.00;;;24.02;45.56
2841;BME280;53423;49.224;12.074;2023-05-23T07:33:45;97440.31;;;24.02;46.21
2841;BME280;53423;49.224;12.074;2023-05-23T07:36:13;97445.81;;;23.96;46.09
2841;BME280;53423;49.224;12.074;2023-05-23T07:38:42;97446.06;;;24.16;45.44
2841;BME280;53423;49.224;12.074;2023-05-23T07:41:09;97446.97;;;24.00;46.70
2841;BME280;53423;49.224;12.074;2023-05-23T07:43:38;97445.44;;;24.45;45.48
2841;BME280;53423;49.224;12.074;2023-05-23T07:46:08;97445.38;;;24.35;45.48
2841;BME280;53423;49.224;12.074;2023-05-23T07:48:36;97453.94;;;24.32;46.10
2841;BME280;53423;49.224;12.074;2023-05-23T07:51:04;97449.94;;;24.03;47.05
2841;BME280;53423;49.224;12.074;2023-05-23T07:53:32;97447.78;;;24.00;47.88
2841;BME280;53423;49.224;12.074;2023-05-23T07:56:00;97455.41;;;23.87;47.57
2841;BME280;53423;49.224;12.074;2023-05-23T07:58:28;97454.41;;;23.98;47.85
2841;BME280;53423;49.224;12.074;2023-05-23T08:00:56;97456.69;;;24.06;47.27
2841;BME280;53423;49.224;12.074;2023-05-23T08:03:26;97454.94;;;24.26;46.62
2841;BME280;53423;49.224;12.074;2023-05-23T08:05:54;97458.03;;;24.82;45.95
2841;BME280;53423;49.224;12.074;2023-05-23T08:08:22;97461.03;;;25.42;45.04
2841;BME280;53423;49.224;12.074;2023-05-23T08:10:50;97461.72;;;26.14;43.34
2841;BME280;53423;49.224;12.074;2023-05-23T08:13:18;97460.84;;;26.74;41.38
2841;BME280;53423;49.224;12.074;2023-05-23T08:15:46;97452.13;;;27.07;40.99
2841;BME280;53423;49.224;12.074;2023-05-23T08:18:14;97450.63;;;26.81;40.46
2841;BME280;53423;49.224;12.074;2023-05-23T08:20:43;97461.00;;;27.18;39.57
2841;BME280;53423;49.224;12.074;2023-05-23T08:23:11;97465.72;;;27.51;39.60
2841;BME280;53423;49.224;12.074;2023-05-23T08:25:39;97459.19;;;26.98;40.18
2841;BME280;53423;49.224;12.074;2023-05-23T08:28:07;97471.63;;;26.69;40.93
2841;BME280;53423;49.224;12.074;2023-05-23T08:30:35;97468.66;;;26.50;40.76
2841;BME280;53423;49.224;12.074;2023-05-23T08:33:03;97469.50;;;26.06;42.34
2841;BME280;53423;49.224;12.074;2023-05-23T08:35:32;97466.00;;;26.20;41.92
2841;BME280;53423;49.224;12.074;2023-05-23T08:38:04;97474.31;;;26.34;42.11
2841;BME280;53423;49.224;12.074;2023-05-23T08:40:34;97480.25;;;26.16;43.07
2841;BME280;53423;49.224;12.074;2023-05-23T08:43:03;97474.06;;;26.15;42.45
2841;BME280;53423;49.224;12.074;2023-05-23T08:45:31;97472.69;;;26.18;41.10
2841;BME280;53423;49.224;12.074;2023-05-23T08:48:00;97485.50;;;25.65;42.64
2841;BME280;53423;49.224;12.074;2023-05-23T08:50:29;97496.03;;;25.15;44.09
2841;BME280;53423;49.224;12.074;2023-05-23T08:52:58;97485.78;;;25.74;42.51
2841;BME280;53423;49.224;12.074;2023-05-23T08:55:28;97484.25;;;26.33;41.43
2841;BME280;53423;49.224;12.074;2023-05-23T08:57:57;97482.66;;;26.17;40.48
2841;BME280;53423;49.224;12.074;2023-05-23T09:00:26;97482.59;;;25.87;41.47
2841;BME280;53423;49.224;12.074;2023-05-23T09:02:56;97491.34;;;25.42;42.49
2841;BME280;53423;49.224;12.074;2023-05-23T09:05:25;97493.13;;;24.75;43.65
2841;BME280;53423;49.224;12.074;2023-05-23T09:07:53;97498.19;;;24.40;44.72
2841;BME280;53423;49.224;12.074;2023-05-23T09:10:22;97498.91;;;24.25;45.28
2841;BME280;53423;49.224;12.074;2023-05-23T09:12:51;97500.09;;;23.86;46.13
2841;BME280;53423;49.224;12.074;2023-05-23T09:15:19;97505.25;;;23.93;46.42
2841;BME280;53423;49.224;12.074;2023-05-23T09:17:49;97511.63;;;23.87;46.84
2841;BME280;53423;49.224;12.074;2023-05-23T09:20:17;97515.06;;;23.82;46.53
2841;BME280;53423;49.224;12.074;2023-05-23T09:22:46;97506.38;;;23.70;46.79
2841;BME280;53423;49.224;12.074;2023-05-23T09:25:14;97517.34;;;23.69;46.80
2841;BME280;53423;49.224;12.074;2023-05-23T09:27:42;97513.34;;;23.71;46.69
2841;BME280;53423;49.224;12.074;2023-05-23T09:30:16;97521.00;;;23.89;46.07
2841;BME280;53423;49.224;12.074;2023-05-23T09:32:57;97517.09;;;23.97;45.16
2841;BME280;53423;49.224;12.074;2023-05-23T09:35:31;97507.69;;;23.94;45.07
2841;BME280;53423;49.224;12.074;2023-05-23T09:37:59;97508.44;;;23.90;45.28
2841;BME280;53423;49.224;12.074;2023-05-23T09:40:30;97511.59;;;24.08;44.43
2841;BME280;53423;49.224;12.074;2023-05-23T09:43:01;97513.13;;;23.99;44.78
2841;BME280;53423;49.224;12.074;2023-05-23T09:45:32;97516.31;;;23.75;45.34
2841;BME280;53423;49.224;12.074;2023-05-23T09:48:00;97514.81;;;24.37;43.95
2841;BME280;53423;49.224;12.074;2023-05-23T09:50:30;97520.56;;;24.19;44.49
2841;BME280;53423;49.224;12.074;2023-05-23T09:52:59;97521.81;;;24.11;44.32
2841;BME280;53423;49.224;12.074;2023-05-23T09:55:28;97523.97;;;24.14;43.97
2841;BME280;53423;49.224;12.074;2023-05-23T09:57:57;97519.13;;;24.11;44.04
2841;BME280;53423;49.224;12.074;2023-05-23T10:00:25;97513.72;;;24.06;44.05
2841;BME280;53423;49.224;12.074;2023-05-23T10:02:59;97523.66;;;24.37;43.73
2841;BME280;53423;49.224;12.074;2023-05-23T10:05:40;97524.47;;;25.16;42.01
2841;BME280;53423;49.224;12.074;2023-05-23T10:08:11;97525.50;;;25.57;40.54
2841;BME280;53423;49.224;12.074;2023-05-23T10:14:09;97510.47;;;25.66;40.10
2841;BME280;53423;49.224;12.074;2023-05-23T10:16:43;97519.84;;;25.48;39.30
2841;BME280;53423;49.224;12.074;2023-05-23T10:19:22;97511.13;;;25.26;38.87
2841;BME280;53423;49.224;12.074;2023-05-23T10:21:57;97521.78;;;25.11;39.77
2841;BME280;53423;49.224;12.074;2023-05-23T10:24:26;97516.13;;;25.08;39.71
2841;BME280;53423;49.224;12.074;2023-05-23T10:26:54;97513.06;;;24.89;39.67
2841;BME280;53423;49.224;12.074;2023-05-23T10:29:23;97514.47;;;25.02;39.41
2841;BME280;53423;49.224;12.074;2023-05-23T10:31:52;97516.47;;;25.26;38.67
2841;BME280;53423;49.224;12.074;2023-05-23T10:34:26;97508.53;;;25.46;38.32
2841;BME280;53423;49.224;12.074;2023-05-23T10:36:59;97516.19;;;26.00;36.67
2841;BME280;53423;49.224;12.074;2023-05-23T10:39:46;97511.69;;;26.85;36.38
2841;BME280;53423;49.224;12.074;2023-05-23T10:42:21;97507.97;;;27.60;33.62
2841;BME280;53423;49.224;12.074;2023-05-23T10:45:13;97508.91;;;27.84;33.76
2841;BME280;53423;49.224;12.074;2023-05-23T10:47:41;97493.97;;;28.41;33.25
2841;BME280;53423;49.224;12.074;2023-05-23T10:50:13;97499.63;;;29.01;32.79
2841;BME280;53423;49.224;12.074;2023-05-23T10:52:41;97500.69;;;29.29;32.15
2841;BME280;53423;49.224;12.074;2023-05-23T10:55:14;97502.69;;;29.18;31.72
2841;BME280;53423;49.224;12.074;2023-05-23T10:57:43;97511.19;;;28.78;32.73
2841;BME280;53423;49.224;12.074;2023-05-23T11:00:14;97507.31;;;28.27;33.33
2841;BME280;53423;49.224;12.074;2023-05-23T11:02:59;97506.88;;;28.77;33.52
2841;BME280;53423;49.224;12.074;2023-05-23T11:05:28;97516.28;;;28.80;32.80
2841;BME280;53423;49.224;12.074;2023-05-23T11:08:07;97514.22;;;28.38;33.02
2841;BME280;53423;49.224;12.074;2023-05-23T11:10:52;97506.13;;;28.38;33.04
2841;BME280;53423;49.224;12.074;2023-05-23T11:13:21;97502.16;;;28.64;32.69
2841;BME280;53423;49.224;12.074;2023-05-23T11:15:50;97500.91;;;28.80;32.63
2841;BME280;53423;49.224;12.074;2023-05-23T11:18:22;97503.31;;;29.34;32.45
2841;BME280;53423;49.224;12.074;2023-05-23T11:20:53;97495.94;;;28.64;33.27
2841;BME280;53423;49.224;12.074;2023-05-23T11:23:22;97491.41;;;28.59;33.89
2841;BME280;53423;49.224;12.074;2023-05-23T11:25:51;97489.13;;;29.66;30.95
2841;BME280;53423;49.224;12.074;2023-05-23T11:28:21;97487.13;;;29.10;32.17
2841;BME280;53423;49.224;12.074;2023-05-23T11:30:49;97484.94;;;28.22;32.71
2841;BME280;53423;49.224;12.074;2023-05-23T11:33:18;97493.72;;;28.37;32.87
2841;BME280;53423;49.224;12.074;2023-05-23T11:35:47;97485.69;;;27.88;33.63
2841;BME280;53423;49.224;12.074;2023-05-23T11:38:18;97486.88;;;27.72;33.56
2841;BME280;53423;49.224;12.074;2023-05-23T11:40:47;97495.63;;;28.70;32.30
2841;BME280;53423;49.224;12.074;2023-05-23T11:43:15;97488.16;;;29.14;31.66
2841;BME280;53423;49.224;12.074;2023-05-23T11:45:45;97485.09;;;29.45;31.25
2841;BME280;53423;49.224;12.074;2023-05-23T11:48:15;97474.59;;;29.62;30.65
2841;BME280;53423;49.224;12.074;2023-05-23T11:50:45;97482.78;;;29.14;31.23
2841;BME280;53423;49.224;12.074;2023-05-23T11:53:14;97476.97;;;28.40;32.34
2841;BME280;53423;49.224;12.074;2023-05-23T11:55:52;97487.72;;;27.68;33.57
2841;BME280;53423;49.224;12.074;2023-05-23T11:58:29;97485.25;;;28.82;31.78
2841;BME280;53423;49.224;12.074;2023-05-23T12:00:59;97490.66;;;28.49;32.18
2841;BME280;53423;49.224;12.074;2023-05-23T12:03:27;97485.78;;;29.08;31.58
2841;BME280;53423;49.224;12.074;2023-05-23T12:05:56;97478.59;;;29.46;29.85
2841;BME280;53423;49.224;12.074;2023-05-23T12:08:24;97472.31;;;29.32;30.65
2841;BME280;53423;49.224;12.074;2023-05-23T12:10:56;97478.66;;;28.31;32.39
2841;BME280;53423;49.224;12.074;2023-05-23T12:13:26;97492.34;;;28.06;33.33
2841;BME280;53423;49.224;12.074;2023-05-23T12:15:55;97480.94;;;28.81;32.02
2841;BME280;53423;49.224;12.074;2023-05-23T12:18:27;97490.00;;;29.19;31.34
2841;BME280;53423;49.224;12.074;2023-05-23T12:20:58;97477.19;;;29.72;30.63
2841;BME280;53423;49.224;12.074;2023-05-23T12:23:27;97478.28;;;30.08;29.33
2841;BME280;53423;49.224;12.074;2023-05-23T12:26:03;97486.47;;;29.42;30.27
2841;BME280;53423;49.224;12.074;2023-05-23T12:28:36;97488.03;;;29.48;30.84
2841;BME280;53423;49.224;12.074;2023-05-23T12:31:09;97491.41;;;29.59;31.10
2841;BME280;53423;49.224;12.074;2023-05-23T12:33:38;97494.09;;;29.40;30.17
2841;BME280;53423;49.224;12.074;2023-05-23T12:36:06;97488.50;;;29.32;30.94
2841;BME280;53423;49.224;12.074;2023-05-23T12:38:35;97490.28;;;29.41;30.76
2841;BME280;53423;49.224;12.074;2023-05-23T12:41:11;97484.16;;;29.54;30.60
2841;BME280;53423;49.224;12.074;2023-05-23T12:43:48;97484.13;;;29.78;30.50
2841;BME280;53423;49.224;12.074;2023-05-23T12:46:16;97498.53;;;29.73;29.96
2841;BME280;53423;49.224;12.074;2023-05-23T12:48:48;97498.94;;;28.91;30.21
2841;BME280;53423;49.224;12.074;2023-05-23T12:51:16;97497.00;;;28.96;30.30
2841;BME280;53423;49.224;12.074;2023-05-23T12:53:44;97510.00;;;28.89;30.41
2841;BME280;53423;49.224;12.074;2023-05-23T12:56:13;97505.44;;;28.85;30.36
2841;BME280;53423;49.224;12.074;2023-05-23T12:58:41;97502.53;;;28.81;30.76
2841;BME280;53423;49.224;12.074;2023-05-23T13:01:10;97503.97;;;28.97;31.22
2841;BME280;53423;49.224;12.074;2023-05-23T13:03:38;97513.06;;;28.83;30.60
2841;BME280;53423;49.224;12.074;2023-05-23T13:06:06;97506.00;;;28.20;32.22
2841;BME280;53423;49.224;12.074;2023-05-23T13:08:34;97521.84;;;27.82;31.91
2841;BME280;53423;49.224;12.074;2023-05-23T13:11:02;97530.66;;;27.44;31.70
2841;BME280;53423;49.224;12.074;2023-05-23T13:13:32;97530.22;;;27.02;33.15
2841;BME280;53423;49.224;12.074;2023-05-23T13:16:00;97535.63;;;26.42;34.50